createdAt,value
2019-02-14T00:00:53.770Z,63.93
2019-02-14T00:03:23.469Z,71.30
2019-02-14T00:05:53.163Z,74.07
2019-02-14T00:08:22.877Z,70.30
2019-02-14T00:10:52.595Z,72.30
2019-02-14T00:13:22.298Z,67.77
2019-02-14T00:15:52.004Z,62.20
2019-02-14T00:18:21.715Z,72.43
2019-02-14T00:20:51.394Z,66.57
2019-02-14T00:23:21.064Z,67.93
2019-02-14T00:25:50.770Z,65.70
2019-02-14T00:28:20.457Z,73.07
2019-02-14T00:30:50.185Z,75.93
2019-02-14T00:33:19.863Z,68.67
2019-02-14T00:35:49.577Z,66.87
2019-02-14T00:38:19.283Z,69.83
2019-02-14T00:40:49.041Z,71.23
2019-02-14T00:43:18.734Z,72.93
2019-02-14T00:45:48.442Z,70.33
2019-02-14T00:48:18.112Z,68.17
2019-02-14T00:50:50.446Z,81.03
2019-02-14T00:53:20.948Z,79.47
2019-02-14T00:55:53.504Z,71.33
2019-02-14T00:58:23.198Z,66.07
2019-02-14T01:00:55.909Z,73.23
2019-02-14T01:03:25.634Z,66.70
2019-02-14T01:05:58.307Z,73.77
2019-02-14T01:08:27.974Z,79.63
2019-02-14T01:10:58.809Z,67.00
2019-02-14T01:13:28.494Z,73.10
2019-02-14T01:15:58.211Z,81.77
2019-02-14T01:18:27.920Z,70.60
2019-02-14T01:20:57.612Z,72.67
2019-02-14T01:23:27.333Z,72.07
2019-02-14T01:25:57.090Z,71.23
2019-02-14T01:28:26.788Z,76.10
2019-02-14T01:30:56.475Z,78.57
2019-02-14T01:33:26.192Z,77.83
2019-02-14T01:35:55.875Z,74.10
2019-02-14T01:38:25.647Z,69.20
2019-02-14T01:40:55.330Z,77.67
2019-02-14T01:43:25.039Z,80.37
2019-02-14T01:45:54.727Z,73.10
2019-02-14T01:48:24.436Z,81.00
2019-02-14T01:50:54.110Z,79.83
2019-02-14T01:53:23.782Z,76.57
2019-02-14T01:55:53.526Z,75.90
2019-02-14T01:58:23.228Z,81.33
2019-02-14T02:00:52.978Z,79.53
2019-02-14T02:03:22.690Z,78.20
2019-02-14T02:05:52.325Z,79.83
2019-02-14T02:08:22.049Z,79.80
2019-02-14T02:10:51.817Z,78.90
2019-02-14T02:13:21.511Z,83.57
2019-02-14T02:15:51.642Z,80.60
2019-02-14T02:18:21.494Z,86.97
2019-02-14T02:20:51.193Z,74.73
2019-02-14T02:23:20.908Z,78.53
2019-02-14T02:25:50.606Z,86.83
2019-02-14T02:28:20.302Z,91.03
2019-02-14T02:30:50.018Z,82.30
2019-02-14T02:33:19.706Z,83.83
2019-02-14T02:35:49.394Z,83.50
2019-02-14T02:38:19.116Z,92.90
2019-02-14T02:40:48.788Z,92.83
2019-02-14T02:43:18.485Z,85.73
2019-02-14T02:45:48.166Z,94.67
2019-02-14T02:48:17.897Z,88.93
2019-02-14T02:50:47.569Z,85.73
2019-02-14T02:53:17.337Z,86.07
2019-02-14T02:55:47.045Z,87.10
2019-02-14T02:58:16.773Z,90.33
2019-02-14T03:00:46.471Z,89.13
2019-02-14T03:03:16.186Z,90.97
2019-02-14T03:05:45.875Z,90.50
2019-02-14T03:08:15.619Z,88.13
2019-02-14T03:10:45.599Z,88.20
2019-02-14T03:13:15.911Z,86.70
2019-02-14T03:15:45.829Z,89.03
2019-02-14T03:18:15.638Z,85.73
2019-02-14T03:20:45.693Z,100.40
2019-02-14T03:23:15.647Z,92.63
2019-02-14T03:25:46.318Z,88.57
2019-02-14T03:28:16.346Z,87.17
2019-02-14T03:30:46.062Z,96.40
2019-02-14T03:33:15.750Z,86.53
2019-02-14T03:35:45.469Z,96.83
2019-02-14T03:38:15.156Z,87.93
2019-02-14T03:40:44.919Z,94.67
2019-02-14T03:43:14.618Z,89.93
2019-02-14T03:45:44.397Z,99.60
2019-02-14T03:48:14.111Z,93.83
2019-02-14T03:50:43.801Z,95.27
2019-02-14T03:53:13.495Z,91.20
2019-02-14T03:55:43.185Z,93.73
2019-02-14T03:58:12.911Z,95.97
2019-02-14T04:00:42.611Z,96.23
2019-02-14T04:03:12.326Z,102.50
2019-02-14T04:05:42.048Z,97.87
2019-02-14T04:08:11.747Z,98.63
2019-02-14T04:10:41.470Z,93.17
2019-02-14T04:13:11.154Z,101.93
2019-02-14T04:15:40.846Z,94.53
2019-02-14T04:18:10.518Z,94.07
2019-02-14T04:20:40.284Z,100.23
2019-02-14T04:23:09.973Z,99.23
2019-02-14T04:25:39.706Z,97.40
2019-02-14T04:28:09.405Z,107.77
2019-02-14T04:30:39.152Z,110.03
2019-02-14T04:33:08.863Z,109.33
2019-02-14T04:35:38.570Z,107.53
2019-02-14T04:38:08.285Z,100.87
2019-02-14T04:40:38.018Z,103.30
2019-02-14T04:43:07.672Z,99.47
2019-02-14T04:45:37.364Z,109.07
2019-02-14T04:48:07.050Z,110.37
2019-02-14T04:50:36.759Z,115.63
2019-02-14T04:53:08.885Z,123.13
2019-02-14T04:55:39.159Z,114.90
2019-02-14T04:58:08.925Z,106.80
2019-02-14T05:00:38.673Z,119.67
2019-02-14T05:03:08.376Z,120.10
2019-02-14T05:05:38.117Z,122.43
2019-02-14T05:08:07.836Z,112.30
2019-02-14T05:10:37.528Z,126.20
2019-02-14T05:13:07.223Z,118.77
2019-02-14T05:15:36.932Z,123.53
2019-02-14T05:18:07.433Z,115.77
2019-02-14T05:20:37.144Z,116.47
2019-02-14T05:23:06.850Z,121.43
2019-02-14T05:25:36.551Z,127.63
2019-02-14T05:28:06.257Z,121.97
2019-02-14T05:30:35.950Z,118.20
2019-02-14T05:33:08.027Z,127.03
2019-02-14T05:35:37.743Z,122.73
2019-02-14T05:38:07.466Z,130.57
2019-02-14T05:40:37.126Z,121.87
2019-02-14T05:43:06.841Z,127.10
2019-02-14T05:45:36.556Z,128.50
2019-02-14T05:48:06.255Z,131.23
2019-02-14T05:50:35.976Z,126.93
2019-02-14T05:53:05.690Z,124.03
2019-02-14T05:55:35.410Z,133.20
2019-02-14T05:58:05.115Z,127.60
2019-02-14T06:00:34.879Z,127.70
2019-02-14T06:03:04.624Z,126.97
2019-02-14T06:05:34.403Z,125.40
2019-02-14T06:08:04.116Z,121.53
2019-02-14T06:10:33.802Z,114.67
2019-02-14T06:13:03.688Z,122.73
2019-02-14T06:15:33.379Z,125.63
2019-02-14T06:18:03.101Z,131.30
2019-02-14T06:20:32.823Z,127.70
2019-02-14T06:23:02.571Z,123.23
2019-02-14T06:25:32.296Z,131.07
2019-02-14T06:28:02.015Z,121.40
2019-02-14T06:30:31.704Z,117.07
2019-02-14T06:33:27.522Z,127.10
2019-02-14T06:35:57.202Z,123.20
2019-02-14T06:38:26.960Z,127.27
2019-02-14T06:40:56.622Z,128.70
2019-02-14T06:43:26.340Z,129.90
2019-02-14T06:45:56.028Z,139.10
2019-02-14T06:48:25.833Z,118.27
2019-02-14T06:50:55.533Z,131.77
2019-02-14T06:53:25.356Z,121.30
2019-02-14T06:55:55.064Z,134.57
2019-02-14T06:58:24.782Z,139.90
2019-02-14T07:00:54.508Z,130.80
2019-02-14T07:03:24.249Z,121.57
2019-02-14T07:05:53.946Z,137.07
2019-02-14T07:08:23.681Z,133.63
2019-02-14T07:10:53.379Z,131.63
2019-02-14T07:13:23.104Z,129.70
2019-02-14T07:15:52.849Z,122.20
2019-02-14T07:18:22.580Z,126.60
2019-02-14T07:20:52.284Z,133.77
2019-02-14T07:23:22.070Z,129.00
2019-02-14T07:25:51.759Z,135.40
2019-02-14T07:28:21.477Z,131.33
2019-02-14T07:30:51.151Z,137.30
2019-02-14T07:33:20.909Z,125.73
2019-02-14T07:35:50.619Z,125.93
2019-02-14T07:38:20.449Z,123.27
2019-02-14T07:40:50.326Z,129.60
2019-02-14T07:43:20.047Z,135.90
2019-02-14T07:45:49.765Z,138.50
2019-02-14T07:48:19.456Z,138.27
2019-02-14T07:50:49.167Z,144.67
2019-02-14T07:53:20.412Z,131.30
2019-02-14T07:55:50.191Z,128.17
2019-02-14T07:58:19.852Z,131.80
2019-02-14T08:00:49.573Z,126.40
2019-02-14T08:03:19.274Z,130.30
2019-02-14T08:05:49.015Z,127.80
2019-02-14T08:08:18.729Z,130.70
2019-02-14T08:10:48.440Z,134.37
2019-02-14T08:13:18.149Z,132.67
2019-02-14T08:15:47.881Z,133.93
2019-02-14T08:18:17.590Z,137.30
2019-02-14T08:20:47.308Z,145.40
2019-02-14T08:23:17.030Z,126.57
2019-02-14T08:25:46.793Z,130.17
2019-02-14T08:28:16.435Z,123.37
2019-02-14T08:30:46.269Z,129.87
2019-02-14T08:33:15.999Z,128.77
2019-02-14T08:35:48.411Z,133.20
2019-02-14T08:38:18.129Z,124.13
2019-02-14T08:40:47.844Z,115.93
2019-02-14T08:43:27.311Z,121.27
2019-02-14T08:45:56.988Z,121.43
2019-02-14T08:48:26.706Z,134.20
2019-02-14T08:50:56.429Z,126.83
2019-02-14T08:53:26.093Z,112.77
2019-02-14T08:55:58.691Z,123.87
2019-02-14T08:58:28.363Z,119.47
2019-02-14T09:00:58.112Z,114.33
2019-02-14T09:03:27.808Z,124.10
2019-02-14T09:05:57.576Z,121.40
2019-02-14T09:08:27.248Z,120.30
2019-02-14T09:10:56.947Z,110.17
2019-02-14T09:13:26.640Z,113.50
2019-02-14T09:15:58.368Z,107.63
2019-02-14T09:18:28.052Z,123.17
2019-02-14T09:20:57.788Z,117.07
2019-02-14T09:23:27.475Z,122.43
2019-02-14T09:25:57.178Z,126.80
2019-02-14T09:28:26.870Z,116.87
2019-02-14T09:30:56.573Z,111.93
2019-02-14T09:33:26.289Z,117.67
2019-02-14T09:35:57.644Z,97.00
2019-02-14T09:38:27.365Z,97.33
2019-02-14T09:40:57.063Z,95.43
2019-02-14T09:43:29.767Z,104.20
2019-02-14T09:45:58.197Z,92.53
2019-02-14T09:48:27.897Z,88.60
2019-02-14T09:50:57.624Z,100.37
2019-02-14T09:53:27.342Z,92.60
2019-02-14T09:55:57.083Z,92.30
2019-02-14T09:58:26.835Z,100.07
2019-02-14T10:00:56.523Z,90.73
2019-02-14T10:03:26.286Z,106.80
2019-02-14T10:05:56.026Z,90.40
2019-02-14T10:08:25.776Z,96.93
2019-02-14T10:10:55.595Z,95.73
2019-02-14T10:13:25.274Z,98.00
2019-02-14T10:15:55.149Z,101.73
2019-02-14T10:18:24.848Z,88.93
2019-02-14T10:20:54.562Z,97.43
2019-02-14T10:23:24.276Z,90.37
2019-02-14T10:25:53.989Z,101.03
2019-02-14T10:28:23.820Z,100.17
2019-02-14T10:30:53.545Z,87.93
2019-02-14T10:33:23.264Z,95.90
2019-02-14T10:35:52.954Z,91.20
2019-02-14T10:38:22.863Z,95.17
2019-02-14T10:40:52.597Z,88.20
2019-02-14T10:43:22.313Z,86.57
2019-02-14T10:45:52.024Z,87.07
2019-02-14T10:48:21.720Z,109.30
2019-02-14T10:50:51.565Z,85.50
2019-02-14T10:53:21.278Z,96.90
2019-02-14T10:55:50.987Z,85.07
2019-02-14T10:58:20.682Z,92.90
2019-02-14T11:00:50.366Z,85.23
2019-02-14T11:03:20.184Z,91.67
2019-02-14T11:05:49.846Z,93.27
2019-02-14T11:08:19.890Z,95.87
2019-02-14T11:10:49.704Z,83.70
2019-02-14T11:13:27.539Z,86.87
2019-02-14T11:15:57.238Z,82.63
2019-02-14T11:18:27.943Z,81.50
2019-02-14T11:20:57.612Z,87.67
2019-02-14T11:23:27.426Z,81.87
2019-02-14T11:25:57.379Z,81.87
2019-02-14T11:28:27.095Z,84.97
2019-02-14T11:30:56.788Z,84.03
2019-02-14T11:33:34.868Z,74.70
2019-02-14T11:36:04.648Z,80.67
2019-02-14T11:38:40.466Z,80.73
2019-02-14T11:41:05.748Z,69.27
2019-02-14T11:43:35.627Z,74.57
2019-02-14T11:46:05.414Z,73.90
2019-02-14T11:48:35.125Z,69.80
2019-02-14T11:51:04.884Z,69.70
2019-02-14T11:53:34.565Z,78.63
2019-02-14T11:56:04.279Z,79.80
2019-02-14T11:58:33.976Z,68.40
2019-02-14T12:01:03.646Z,76.10
2019-02-14T12:03:33.366Z,75.73
2019-02-14T12:06:03.124Z,77.67
2019-02-14T12:08:32.841Z,76.93
2019-02-14T12:11:02.600Z,75.17
2019-02-14T12:13:32.353Z,76.30
2019-02-14T12:16:02.044Z,81.10
2019-02-14T12:18:31.707Z,69.63
2019-02-14T12:21:01.479Z,69.10
2019-02-14T12:23:31.178Z,70.07
2019-02-14T12:26:00.936Z,65.30
2019-02-14T12:28:30.652Z,72.27
2019-02-14T12:31:00.347Z,68.87
2019-02-14T12:33:30.090Z,65.23
2019-02-14T12:35:59.779Z,68.63
2019-02-14T12:38:29.545Z,63.23
2019-02-14T12:40:59.306Z,62.53
2019-02-14T12:43:28.987Z,59.97
2019-02-14T12:45:58.696Z,66.30
2019-02-14T12:48:28.413Z,59.00
2019-02-14T12:50:58.139Z,67.27
2019-02-14T12:53:27.900Z,65.23
2019-02-14T12:55:57.606Z,60.40
2019-02-14T12:58:30.129Z,53.90
2019-02-14T13:00:59.975Z,64.30
2019-02-14T13:03:31.674Z,64.93
2019-02-14T13:06:01.329Z,63.60
2019-02-14T13:08:31.030Z,62.70
2019-02-14T13:11:07.937Z,65.03
2019-02-14T13:13:37.635Z,62.93
2019-02-14T13:16:07.424Z,62.20
2019-02-14T13:18:37.191Z,63.23
2019-02-14T13:21:06.878Z,61.03
2019-02-14T13:23:39.463Z,67.87
2019-02-14T13:26:09.674Z,61.17
2019-02-14T13:28:39.425Z,60.40
2019-02-14T13:31:10.768Z,58.90
2019-02-14T13:33:40.484Z,61.27
2019-02-14T13:36:10.197Z,59.87
2019-02-14T13:38:39.884Z,55.67
2019-02-14T13:41:13.885Z,57.00
2019-02-14T13:43:47.093Z,56.17
2019-02-14T13:46:16.827Z,50.20
2019-02-14T13:48:46.532Z,56.20
2019-02-14T13:51:16.318Z,51.13
2019-02-14T13:53:48.795Z,51.37
2019-02-14T13:56:18.501Z,46.00
2019-02-14T13:58:48.212Z,53.00
2019-02-14T14:01:18.957Z,48.37
2019-02-14T14:03:48.642Z,53.57
2019-02-14T14:06:18.378Z,50.60
2019-02-14T14:08:48.047Z,58.37
2019-02-14T14:11:17.801Z,51.60
2019-02-14T14:13:47.455Z,48.03
2019-02-14T14:16:18.396Z,47.67
2019-02-14T14:18:48.098Z,54.90
2019-02-14T14:21:18.633Z,56.53
2019-02-14T14:23:51.224Z,54.53
2019-02-14T14:26:21.050Z,51.90
2019-02-14T14:28:50.718Z,57.87
2019-02-14T14:31:20.470Z,51.23
2019-02-14T14:33:50.291Z,54.57
2019-02-14T14:36:20.072Z,55.50
2019-02-14T14:38:49.762Z,55.00
2019-02-14T14:41:19.464Z,55.80
2019-02-14T14:43:50.868Z,52.30
2019-02-14T14:46:22.264Z,54.67
2019-02-14T14:48:51.905Z,58.73
2019-02-14T14:51:21.626Z,55.90
2019-02-14T14:53:51.296Z,49.30
2019-02-14T14:56:21.045Z,52.87
2019-02-14T14:58:50.717Z,56.23
2019-02-14T15:01:20.440Z,54.77
2019-02-14T15:03:52.132Z,58.60
2019-02-14T15:06:21.576Z,61.07
2019-02-14T15:08:51.298Z,56.47
2019-02-14T15:11:20.948Z,55.53
2019-02-14T15:13:50.663Z,55.83
2019-02-14T15:16:20.366Z,53.40
2019-02-14T15:18:51.075Z,51.03
2019-02-14T15:21:20.758Z,59.10
2019-02-14T15:23:50.455Z,57.27
2019-02-14T15:26:20.151Z,60.90
2019-02-14T15:28:49.867Z,55.60
2019-02-14T15:31:19.565Z,60.33
2019-02-14T15:33:49.265Z,61.20
2019-02-14T15:36:19.012Z,55.90
2019-02-14T15:38:48.955Z,52.33
2019-02-14T15:41:18.649Z,52.47
2019-02-14T15:43:48.356Z,56.63
2019-02-14T15:46:18.062Z,66.30
2019-02-14T15:48:47.766Z,56.50
2019-02-14T15:51:20.053Z,69.63
2019-02-14T15:53:49.847Z,58.07
2019-02-14T15:56:19.528Z,57.83
2019-02-14T15:58:49.326Z,58.60
2019-02-14T16:01:24.987Z,59.40
2019-02-14T16:03:54.696Z,62.80
2019-02-14T16:06:26.040Z,62.27
2019-02-14T16:08:55.803Z,64.30
2019-02-14T16:11:25.501Z,60.07
2019-02-14T16:13:57.106Z,63.37
2019-02-14T16:16:26.872Z,53.10
2019-02-14T16:18:56.572Z,65.20
2019-02-14T16:21:27.775Z,69.53
2019-02-14T16:23:58.332Z,63.83
2019-02-14T16:26:27.986Z,68.17
2019-02-14T16:29:01.471Z,67.57
2019-02-14T16:31:30.692Z,64.37
2019-02-14T16:34:01.069Z,67.07
2019-02-14T16:36:32.471Z,68.13
2019-02-14T16:39:02.162Z,66.50
2019-02-14T16:41:31.849Z,67.07
2019-02-14T16:44:01.557Z,64.53
2019-02-14T16:46:32.790Z,60.10
2019-02-14T16:49:02.793Z,64.40
2019-02-14T16:51:32.450Z,67.13
2019-02-14T16:54:02.761Z,63.17
2019-02-14T16:56:32.695Z,67.80
2019-02-14T16:59:03.680Z,67.00
2019-02-14T17:01:33.984Z,71.70
2019-02-14T17:04:03.693Z,67.17
2019-02-14T17:06:34.462Z,63.57
2019-02-14T17:09:05.265Z,63.27
2019-02-14T17:11:37.059Z,58.23
2019-02-14T17:14:08.379Z,67.33
2019-02-14T17:16:38.079Z,70.70
2019-02-14T17:19:07.825Z,70.37
2019-02-14T17:21:37.580Z,68.97
2019-02-14T17:24:07.277Z,71.63
2019-02-14T17:26:36.997Z,68.37
2019-02-14T17:29:06.713Z,71.73
2019-02-14T17:31:36.407Z,77.33
2019-02-14T17:34:06.076Z,74.87
2019-02-14T17:36:35.853Z,66.90
2019-02-14T17:39:06.929Z,66.90
2019-02-14T17:41:36.835Z,70.90
2019-02-14T17:44:06.740Z,74.77
2019-02-14T17:46:36.457Z,69.13
2019-02-14T17:49:06.236Z,76.00
2019-02-14T17:51:35.939Z,75.50
2019-02-14T17:54:05.614Z,76.80
2019-02-14T17:56:35.335Z,83.23
2019-02-14T17:59:05.047Z,85.73
2019-02-14T18:01:34.759Z,79.30
2019-02-14T18:04:04.457Z,81.33
2019-02-14T18:06:34.147Z,75.13
2019-02-14T18:09:04.587Z,78.50
2019-02-14T18:11:34.293Z,83.33
2019-02-14T18:14:04.041Z,83.80
2019-02-14T18:16:33.762Z,79.90
2019-02-14T18:19:04.289Z,74.63
2019-02-14T18:21:34.015Z,83.63
2019-02-14T18:24:04.118Z,72.20
2019-02-14T18:26:33.836Z,71.60
2019-02-14T18:29:03.751Z,76.53
2019-02-14T18:31:33.488Z,74.57
2019-02-14T18:34:03.196Z,74.87
2019-02-14T18:36:32.920Z,70.80
2019-02-14T18:39:02.740Z,71.27
2019-02-14T18:41:32.458Z,74.33
2019-02-14T18:44:02.151Z,72.47
2019-02-14T18:46:31.876Z,77.20
2019-02-14T18:49:02.240Z,76.83
2019-02-14T18:51:34.659Z,73.80
2019-02-14T18:54:04.350Z,82.13
2019-02-14T18:56:34.053Z,71.90
2019-02-14T18:59:03.767Z,80.17
2019-02-14T19:01:33.463Z,75.20
2019-02-14T19:04:03.167Z,81.27
2019-02-14T19:06:32.884Z,81.03
2019-02-14T19:09:02.615Z,89.10
2019-02-14T19:11:38.305Z,93.27
2019-02-14T19:14:08.063Z,73.57
2019-02-14T19:16:37.815Z,75.43
2019-02-14T19:19:07.525Z,78.80
2019-02-14T19:21:37.194Z,81.43
2019-02-14T19:24:06.908Z,77.57
2019-02-14T19:26:37.576Z,97.73
2019-02-14T19:29:07.288Z,83.57
2019-02-14T19:31:36.988Z,79.87
2019-02-14T19:34:06.747Z,81.87
2019-02-14T19:36:36.508Z,79.30
2019-02-14T19:39:06.385Z,76.87
2019-02-14T19:41:36.064Z,78.77
2019-02-14T19:44:05.792Z,74.40
2019-02-14T19:46:35.499Z,76.17
2019-02-14T19:49:05.210Z,82.00
2019-02-14T19:51:37.920Z,73.20
2019-02-14T19:54:07.619Z,68.97
2019-02-14T19:56:37.335Z,78.60
2019-02-14T19:59:06.976Z,72.37
2019-02-14T20:01:36.828Z,72.03
2019-02-14T20:04:06.622Z,74.53
2019-02-14T20:06:36.320Z,69.30
2019-02-14T20:09:06.551Z,77.53
2019-02-14T20:11:37.367Z,66.40
2019-02-14T20:14:07.436Z,64.03
2019-02-14T20:16:37.127Z,65.50
2019-02-14T20:19:06.809Z,62.33
2019-02-14T20:21:36.640Z,66.87
2019-02-14T20:24:06.412Z,62.90
2019-02-14T20:26:36.058Z,63.33
2019-02-14T20:29:05.777Z,57.17
2019-02-14T20:31:35.466Z,60.57
2019-02-14T20:34:05.161Z,65.27
2019-02-14T20:36:34.871Z,66.60
2019-02-14T20:39:05.318Z,65.43
2019-02-14T20:41:35.109Z,60.53
2019-02-14T20:44:04.809Z,72.10
2019-02-14T20:46:34.562Z,66.07
2019-02-14T20:49:04.260Z,61.60
2019-02-14T20:51:38.502Z,60.53
2019-02-14T20:54:05.354Z,60.50
2019-02-14T20:56:35.068Z,62.23
2019-02-14T20:59:04.840Z,63.20
2019-02-14T21:01:34.536Z,56.13
2019-02-14T21:04:04.242Z,61.83
2019-02-14T21:06:34.041Z,63.30
2019-02-14T21:09:04.472Z,60.97
2019-02-14T21:11:34.185Z,66.70
2019-02-14T21:14:03.871Z,56.70
2019-02-14T21:16:33.607Z,63.27
2019-02-14T21:19:03.281Z,67.43
2019-02-14T21:21:33.041Z,75.40
2019-02-14T21:24:02.732Z,66.23
2019-02-14T21:26:32.436Z,63.13
2019-02-14T21:29:02.134Z,69.73
2019-02-14T21:31:31.865Z,59.00
2019-02-14T21:34:01.570Z,64.77
2019-02-14T21:36:31.289Z,62.73
2019-02-14T21:39:01.113Z,61.67
2019-02-14T21:41:30.870Z,57.73
2019-02-14T21:44:00.538Z,67.20
2019-02-14T21:46:30.255Z,59.67
2019-02-14T21:49:06.028Z,61.10
2019-02-14T21:51:35.825Z,67.50
2019-02-14T21:54:05.491Z,63.77
2019-02-14T21:56:35.195Z,60.00
2019-02-14T21:59:04.855Z,66.63
2019-02-14T22:01:34.584Z,55.50
2019-02-14T22:04:04.354Z,57.47
2019-02-14T22:06:34.049Z,55.83
2019-02-14T22:09:04.772Z,63.37
2019-02-14T22:11:35.251Z,62.47
2019-02-14T22:14:13.989Z,65.57
2019-02-14T22:16:43.705Z,66.77
2019-02-14T22:19:13.400Z,65.00
2019-02-14T22:21:43.270Z,72.27
2019-02-14T22:24:13.014Z,68.33
2019-02-14T22:26:42.894Z,68.07
2019-02-14T22:29:12.584Z,68.93
2019-02-14T22:31:42.362Z,74.13
2019-02-14T22:34:12.002Z,66.53
2019-02-14T22:36:41.736Z,68.37
2019-02-14T22:39:11.413Z,71.17
2019-02-14T22:41:42.872Z,70.73
2019-02-14T22:44:12.503Z,79.57
2019-02-14T22:46:42.184Z,71.87
2019-02-14T22:49:11.894Z,65.07
2019-02-14T22:51:41.578Z,70.57
2019-02-14T22:54:11.274Z,65.20
2019-02-14T22:56:41.128Z,69.47
2019-02-14T22:59:10.828Z,70.43
2019-02-14T23:01:41.448Z,75.00
2019-02-14T23:04:11.154Z,65.80
2019-02-14T23:06:40.842Z,74.03
2019-02-14T23:09:10.933Z,79.17
2019-02-14T23:11:40.643Z,75.17
2019-02-14T23:14:10.337Z,69.20
2019-02-14T23:16:40.022Z,73.80
2019-02-14T23:19:09.733Z,78.23
2019-02-14T23:21:39.396Z,78.23
2019-02-14T23:24:09.113Z,71.40
2019-02-14T23:26:38.792Z,62.60
2019-02-14T23:29:08.531Z,67.73
2019-02-14T23:31:38.257Z,71.93
2019-02-14T23:34:07.983Z,68.07
2019-02-14T23:36:37.694Z,70.30
2019-02-14T23:39:07.563Z,69.33
2019-02-14T23:41:37.256Z,76.33
2019-02-14T23:44:06.960Z,67.70
2019-02-14T23:46:36.632Z,67.83
2019-02-14T23:49:06.410Z,69.47
2019-02-14T23:51:36.048Z,75.27
2019-02-14T23:54:05.736Z,71.63
2019-02-14T23:56:35.412Z,75.27
2019-02-14T23:59:05.174Z,65.07
